createdAt,value
2023-03-04T00:01:48.235Z,4.50
2023-03-04T00:04:19.773Z,4.50
2023-03-04T00:06:50.771Z,4.50
2023-03-04T00:09:21.908Z,4.40
2023-03-04T00:11:52.778Z,4.40
2023-03-04T00:14:24.990Z,4.40
2023-03-04T00:16:55.902Z,4.40
2023-03-04T00:19:26.934Z,4.40
2023-03-04T00:21:58.127Z,4.50
2023-03-04T00:24:29.029Z,4.50
2023-03-04T00:26:59.970Z,4.40
2023-03-04T00:29:30.809Z,4.40
2023-03-04T00:32:01.871Z,4.40
2023-03-04T00:34:32.997Z,4.40
2023-03-04T00:37:04.234Z,4.40
2023-03-04T00:39:35.067Z,4.40
2023-03-04T00:42:06.263Z,4.50
2023-03-04T00:44:37.186Z,4.50
2023-03-04T00:47:08.245Z,4.50
2023-03-04T00:49:39.200Z,4.40
2023-03-04T00:52:10.739Z,4.40
2023-03-04T00:54:41.922Z,4.30
2023-03-04T00:57:13.101Z,4.30
2023-03-04T00:59:44.353Z,4.30
2023-03-04T01:02:15.750Z,4.30
2023-03-04T01:04:46.834Z,4.30
2023-03-04T01:07:17.931Z,4.30
2023-03-04T01:09:48.786Z,4.30
2023-03-04T01:12:19.668Z,4.30
2023-03-04T01:14:50.744Z,4.20
2023-03-04T01:17:22.100Z,4.20
2023-03-04T01:19:53.112Z,4.20
2023-03-04T01:22:23.783Z,4.30
2023-03-04T01:24:56.483Z,4.30
2023-03-04T01:27:27.032Z,4.30
2023-03-04T01:29:57.593Z,4.20
2023-03-04T01:32:28.194Z,4.30
2023-03-04T01:34:58.970Z,4.20
2023-03-04T01:37:29.720Z,4.20
2023-03-04T01:40:00.256Z,4.30
2023-03-04T01:42:33.510Z,4.40
2023-03-04T01:45:05.444Z,4.40
2023-03-04T01:47:37.610Z,4.40
2023-03-04T01:50:14.845Z,4.40
2023-03-04T01:52:45.856Z,4.40
2023-03-04T01:55:20.997Z,4.40
2023-03-04T01:57:53.138Z,4.50
2023-03-04T02:00:28.565Z,4.50
2023-03-04T02:03:01.662Z,4.40
2023-03-04T02:05:32.888Z,4.40
2023-03-04T02:08:04.940Z,4.30
2023-03-04T02:10:36.179Z,4.30
2023-03-04T02:13:07.740Z,4.40
2023-03-04T02:15:40.028Z,4.40
2023-03-04T02:18:17.023Z,4.30
2023-03-04T02:20:56.438Z,4.30
2023-03-04T02:23:31.916Z,4.30
2023-03-04T02:26:16.855Z,4.30
2023-03-04T02:28:49.606Z,4.30
2023-03-04T02:31:26.913Z,4.20
2023-03-04T02:34:00.455Z,4.20
2023-03-04T02:36:32.322Z,4.10
2023-03-04T02:39:07.021Z,4.10
2023-03-04T02:41:38.531Z,4.10
2023-03-04T02:44:18.668Z,4.10
2023-03-04T02:46:51.146Z,4.00
2023-03-04T02:49:22.813Z,4.00
2023-03-04T02:51:57.191Z,4.10
2023-03-04T02:54:28.214Z,4.20
2023-03-04T02:57:01.862Z,4.10
2023-03-04T02:59:33.037Z,4.00
2023-03-04T03:02:04.033Z,4.00
2023-03-04T03:04:35.835Z,4.10
2023-03-04T03:07:07.109Z,4.20
2023-03-04T03:09:38.143Z,4.30
2023-03-04T03:12:09.885Z,4.30
2023-03-04T03:14:40.813Z,4.40
2023-03-04T03:17:11.939Z,4.40
2023-03-04T03:19:42.901Z,4.50
2023-03-04T03:22:13.842Z,4.50
2023-03-04T03:24:44.854Z,4.60
2023-03-04T03:27:16.041Z,4.50
2023-03-04T03:29:46.970Z,4.50
2023-03-04T03:32:18.145Z,4.50
2023-03-04T03:34:49.248Z,4.60
2023-03-04T03:37:20.840Z,4.60
2023-03-04T03:39:51.754Z,4.60
2023-03-04T03:42:22.705Z,4.50
2023-03-04T03:44:53.605Z,4.60
2023-03-04T03:47:24.696Z,4.60
2023-03-04T03:49:55.715Z,4.70
2023-03-04T03:52:26.558Z,4.70
2023-03-04T03:54:57.445Z,4.70
2023-03-04T03:57:28.424Z,4.80
2023-03-04T03:59:59.275Z,4.70
2023-03-04T04:02:30.765Z,4.80
2023-03-04T04:05:01.929Z,4.80
2023-03-04T04:07:33.004Z,4.70
2023-03-04T04:10:04.353Z,4.70
2023-03-04T04:12:35.478Z,4.70
2023-03-04T04:15:07.895Z,4.70
2023-03-04T04:17:39.052Z,4.70
2023-03-04T04:20:12.761Z,4.70
2023-03-04T04:22:43.761Z,4.60
2023-03-04T04:25:14.705Z,4.60
2023-03-04T04:27:45.625Z,4.60
2023-03-04T04:30:17.442Z,4.70
2023-03-04T04:32:48.432Z,4.70
2023-03-04T04:35:19.587Z,4.80
2023-03-04T04:37:50.549Z,4.80
2023-03-04T04:40:21.911Z,4.80
2023-03-04T04:42:52.757Z,4.70
2023-03-04T04:45:25.073Z,4.70
2023-03-04T04:47:57.589Z,4.70
2023-03-04T04:50:31.174Z,4.70
2023-03-04T04:53:01.777Z,4.60
2023-03-04T04:55:36.391Z,4.60
2023-03-04T04:58:09.649Z,4.60
2023-03-04T05:00:40.733Z,4.50
2023-03-04T05:03:11.746Z,4.60
2023-03-04T05:05:42.716Z,4.60
2023-03-04T05:08:13.757Z,4.60
2023-03-04T05:10:44.697Z,4.50
2023-03-04T05:13:15.609Z,4.60
2023-03-04T05:15:46.799Z,4.60
2023-03-04T05:18:17.717Z,4.50
2023-03-04T05:20:52.626Z,4.50
2023-03-04T05:23:24.452Z,4.40
2023-03-04T05:25:55.611Z,4.40
2023-03-04T05:28:26.573Z,4.40
2023-03-04T05:30:57.498Z,4.40
2023-03-04T05:33:28.994Z,4.40
2023-03-04T05:36:00.718Z,4.50
2023-03-04T05:38:31.436Z,4.60
2023-03-04T05:41:03.539Z,4.60
2023-03-04T05:43:37.008Z,4.70
2023-03-04T05:46:08.043Z,4.60
2023-03-04T05:48:38.703Z,4.60
2023-03-04T05:51:09.610Z,4.50
2023-03-04T05:53:40.495Z,4.60
2023-03-04T05:56:13.784Z,4.70
2023-03-04T05:58:45.040Z,4.80
2023-03-04T06:01:16.209Z,4.90
2023-03-04T06:03:48.773Z,4.90
2023-03-04T06:06:19.851Z,4.90
2023-03-04T06:08:50.703Z,4.80
2023-03-04T06:11:21.697Z,4.80
2023-03-04T06:13:52.756Z,4.80
2023-03-04T06:16:24.973Z,4.70
2023-03-04T06:18:55.738Z,4.70
2023-03-04T06:21:26.567Z,4.70
2023-03-04T06:23:57.437Z,4.60
2023-03-04T06:26:28.377Z,4.70
2023-03-04T06:28:59.195Z,4.70
2023-03-04T06:31:30.399Z,4.80
2023-03-04T06:34:01.394Z,4.80
2023-03-04T06:36:32.301Z,4.70
2023-03-04T06:39:04.759Z,4.90
2023-03-04T06:41:36.726Z,5.00
2023-03-04T06:44:08.074Z,5.00
2023-03-04T06:46:40.097Z,5.10
2023-03-04T06:49:11.257Z,5.20
2023-03-04T06:51:42.365Z,5.20
2023-03-04T06:54:13.481Z,5.20
2023-03-04T06:56:45.518Z,5.20
2023-03-04T06:59:17.027Z,5.20
2023-03-04T07:01:48.196Z,5.20
2023-03-04T07:04:19.122Z,5.20
2023-03-04T07:06:50.186Z,5.30
2023-03-04T07:09:21.121Z,5.30
2023-03-04T07:11:52.119Z,5.30
2023-03-04T07:14:24.316Z,5.20
2023-03-04T07:17:13.702Z,5.40
2023-03-04T07:19:44.896Z,5.40
2023-03-04T07:22:15.790Z,5.40
2023-03-04T07:24:46.809Z,5.50
2023-03-04T07:27:17.734Z,5.50
2023-03-04T07:29:48.622Z,5.50
2023-03-04T07:32:19.725Z,5.50
2023-03-04T07:34:51.094Z,5.60
2023-03-04T07:37:22.258Z,5.60
2023-03-04T07:39:53.168Z,5.70
2023-03-04T07:42:24.188Z,5.70
2023-03-04T07:44:55.479Z,5.80
2023-03-04T07:47:28.476Z,5.80
2023-03-04T07:49:59.307Z,5.80
2023-03-04T07:52:30.210Z,5.90
2023-03-04T07:55:01.256Z,5.90
2023-03-04T07:57:32.204Z,6.00
2023-03-04T08:00:22.663Z,6.00
2023-03-04T08:02:53.778Z,6.00
2023-03-04T08:08:03.050Z,6.00
2023-03-04T08:10:33.712Z,6.00
2023-03-04T08:13:04.905Z,6.10
2023-03-04T08:15:37.775Z,6.20
2023-03-04T08:18:08.454Z,6.20
2023-03-04T08:20:39.183Z,6.30
2023-03-04T08:23:09.752Z,6.40
2023-03-04T08:25:42.784Z,6.40
2023-03-04T08:28:14.012Z,6.40
2023-03-04T08:30:44.730Z,6.50
2023-03-04T08:33:15.396Z,6.60
2023-03-04T08:35:46.098Z,6.70
2023-03-04T08:38:16.663Z,6.70
2023-03-04T08:40:47.279Z,6.60
2023-03-04T08:43:17.844Z,6.50
2023-03-04T08:45:48.594Z,6.60
2023-03-04T08:48:19.867Z,6.60
2023-03-04T08:50:51.520Z,6.50
2023-03-04T08:53:23.550Z,6.60
2023-03-04T08:55:55.084Z,6.60
2023-03-04T08:58:25.770Z,6.70
2023-03-04T09:00:56.642Z,6.60
2023-03-04T09:03:28.029Z,6.60
2023-03-04T09:05:58.961Z,6.60
2023-03-04T09:08:30.024Z,6.60
2023-03-04T09:11:00.765Z,6.70
2023-03-04T09:13:33.144Z,6.80
2023-03-04T09:16:04.345Z,6.80
2023-03-04T09:18:35.007Z,6.90
2023-03-04T09:21:06.039Z,7.00
2023-03-04T09:23:36.686Z,6.90
2023-03-04T09:29:00.406Z,6.90
2023-03-04T09:31:32.316Z,7.00
2023-03-04T09:34:03.249Z,7.00
2023-03-04T09:36:34.145Z,7.10
2023-03-04T09:39:05.871Z,7.10
2023-03-04T09:44:23.441Z,7.20
2023-03-04T09:46:58.535Z,7.30
2023-03-04T09:49:33.507Z,7.40
2023-03-04T09:52:10.511Z,7.40
2023-03-04T09:55:06.604Z,7.50
2023-03-04T09:57:49.827Z,7.50
2023-03-04T10:00:25.911Z,7.50
2023-03-04T10:03:08.240Z,7.50
2023-03-04T10:05:42.054Z,7.50
2023-03-04T10:08:41.657Z,7.50
2023-03-04T10:11:16.648Z,7.50
2023-03-04T10:13:54.395Z,7.50
2023-03-04T10:16:28.193Z,7.70
2023-03-04T10:19:13.545Z,7.80
2023-03-04T10:21:47.374Z,7.80
2023-03-04T10:24:22.146Z,7.70
2023-03-04T10:26:56.300Z,7.70
2023-03-04T10:29:28.901Z,7.80
2023-03-04T10:32:00.063Z,7.80
2023-03-04T10:34:31.084Z,7.90
2023-03-04T10:37:03.583Z,7.90
2023-03-04T10:39:36.218Z,7.90
2023-03-04T10:42:08.937Z,8.00
2023-03-04T10:44:42.649Z,7.90
2023-03-04T10:47:16.455Z,7.90
2023-03-04T10:49:54.933Z,8.00
2023-03-04T10:52:36.765Z,8.20
2023-03-04T10:55:16.308Z,8.40
2023-03-04T10:58:07.335Z,8.30
2023-03-04T11:00:41.168Z,8.40
2023-03-04T11:03:32.807Z,8.30
2023-03-04T11:06:39.554Z,8.20
2023-03-04T11:12:01.800Z,8.50
2023-03-04T11:14:35.535Z,8.40
2023-03-04T11:17:15.032Z,8.30
2023-03-04T11:19:48.979Z,8.30
2023-03-04T11:22:22.838Z,8.30
2023-03-04T11:25:00.391Z,8.40
2023-03-04T11:27:39.121Z,8.30
2023-03-04T11:30:31.491Z,8.40
2023-03-04T11:33:09.739Z,8.60
2023-03-04T11:35:46.941Z,8.60
2023-03-04T11:38:21.291Z,8.60
2023-03-04T11:40:56.834Z,8.80
2023-03-04T11:43:31.769Z,8.50
2023-03-04T11:46:52.809Z,8.60
2023-03-04T11:49:42.239Z,8.60
2023-03-04T11:52:17.843Z,8.60
2023-03-04T11:54:52.252Z,8.50
2023-03-04T11:57:27.358Z,8.50
2023-03-04T12:00:06.083Z,8.50
2023-03-04T12:05:27.007Z,8.40
2023-03-04T12:08:12.512Z,8.20
2023-03-04T12:10:47.457Z,8.30
2023-03-04T12:13:34.975Z,8.30
2023-03-04T12:16:16.126Z,8.10
2023-03-04T12:18:56.017Z,8.20
2023-03-04T12:21:35.135Z,8.30
2023-03-04T12:27:20.166Z,8.50
2023-03-04T12:29:56.102Z,8.40
2023-03-04T12:32:31.845Z,8.40
2023-03-04T12:35:31.866Z,8.30
2023-03-04T12:38:34.836Z,8.50
2023-03-04T12:41:14.447Z,8.60
2023-03-04T12:43:54.247Z,8.70
2023-03-04T12:46:46.382Z,8.60
2023-03-04T12:49:28.168Z,8.80
2023-03-04T12:52:03.569Z,8.80
2023-03-04T12:54:37.700Z,8.70
2023-03-04T12:57:12.416Z,8.80
2023-03-04T12:59:47.185Z,8.60
2023-03-04T13:02:46.062Z,8.70
2023-03-04T13:05:30.830Z,8.80
2023-03-04T13:08:07.388Z,8.90
2023-03-04T13:10:38.353Z,8.60
2023-03-04T13:13:12.348Z,8.80
2023-03-04T13:15:43.414Z,8.80
2023-03-04T13:18:36.266Z,8.70
2023-03-04T13:21:37.329Z,8.70
2023-03-04T13:24:44.367Z,8.60
2023-03-04T13:27:50.445Z,8.50
2023-03-04T13:30:48.007Z,8.50
2023-03-04T13:37:00.236Z,8.50
2023-03-04T13:39:37.880Z,8.70
2023-03-04T13:42:27.585Z,8.80
2023-03-04T13:45:02.832Z,8.90
2023-03-04T13:47:50.203Z,8.90
2023-03-04T13:50:49.826Z,8.70
2023-03-04T13:53:42.849Z,8.60
2023-03-04T13:56:37.009Z,8.60
2023-03-04T13:59:26.588Z,8.70
2023-03-04T14:02:06.687Z,8.80
2023-03-04T14:04:39.803Z,8.70
2023-03-04T14:07:25.004Z,8.70
2023-03-04T14:10:02.688Z,8.60
2023-03-04T14:12:37.076Z,8.60
2023-03-04T14:15:17.755Z,8.80
2023-03-04T14:17:52.387Z,8.70
2023-03-04T14:20:31.017Z,8.70
2023-03-04T14:23:05.318Z,8.70
2023-03-04T14:25:37.506Z,8.70
2023-03-04T14:28:13.700Z,8.80
2023-03-04T14:30:47.504Z,8.70
2023-03-04T14:33:22.343Z,8.60
2023-03-04T14:36:01.417Z,8.70
2023-03-04T14:38:39.138Z,8.80
2023-03-04T14:43:50.933Z,9.00
2023-03-04T14:46:42.156Z,8.90
2023-03-04T14:49:18.271Z,8.90
2023-03-04T14:51:52.533Z,9.00
2023-03-04T14:54:33.031Z,9.20
2023-03-04T14:57:26.966Z,9.10
2023-03-04T14:59:58.371Z,9.20
2023-03-04T15:02:34.488Z,9.00
2023-03-04T15:05:16.918Z,8.90
2023-03-04T15:07:45.322Z,9.00
2023-03-04T15:10:17.656Z,9.10
2023-03-04T15:12:53.319Z,9.00
2023-03-04T15:15:41.140Z,9.00
2023-03-04T15:18:26.532Z,8.90
2023-03-04T15:20:59.710Z,8.90
2023-03-04T15:23:49.168Z,9.00
2023-03-04T15:26:20.112Z,9.10
2023-03-04T15:28:50.962Z,9.10
2023-03-04T15:31:23.921Z,9.10
2023-03-04T15:33:55.035Z,9.30
2023-03-04T15:36:26.279Z,9.20
2023-03-04T15:38:57.989Z,9.10
2023-03-04T15:41:30.575Z,9.20
2023-03-04T15:44:02.788Z,9.20
2023-03-04T15:46:33.928Z,9.10
2023-03-04T15:49:05.060Z,9.00
2023-03-04T15:51:37.598Z,8.90
2023-03-04T15:56:48.645Z,9.00
2023-03-04T15:59:20.416Z,8.90
2023-03-04T16:01:51.437Z,8.90
2023-03-04T16:04:23.423Z,8.80
2023-03-04T16:06:58.095Z,8.70
2023-03-04T16:09:30.151Z,8.60
2023-03-04T16:14:39.354Z,8.50
2023-03-04T16:17:11.337Z,8.70
2023-03-04T16:19:42.356Z,8.60
2023-03-04T16:24:55.055Z,8.50
2023-03-04T16:27:26.663Z,8.50
2023-03-04T16:29:57.709Z,8.50
2023-03-04T16:32:30.635Z,8.50
2023-03-04T16:35:02.784Z,8.50
2023-03-04T16:40:16.585Z,8.30
2023-03-04T16:42:47.795Z,8.30
2023-03-04T16:45:22.499Z,8.30
2023-03-04T16:47:53.982Z,8.30
2023-03-04T16:50:28.428Z,8.20
2023-03-04T16:52:59.367Z,8.20
2023-03-04T16:55:31.938Z,8.20
2023-03-04T16:58:02.538Z,8.20
2023-03-04T17:00:33.812Z,8.10
2023-03-04T17:03:04.505Z,8.10
2023-03-04T17:05:35.670Z,8.10
2023-03-04T17:10:43.477Z,8.10
2023-03-04T17:13:14.648Z,8.00
2023-03-04T17:15:47.082Z,8.00
2023-03-04T17:18:17.977Z,7.90
2023-03-04T17:20:48.857Z,7.90
2023-03-04T17:23:19.825Z,7.80
2023-03-04T17:25:57.797Z,7.70
2023-03-04T17:28:29.443Z,7.60
2023-03-04T17:33:36.960Z,7.60
2023-03-04T17:36:12.191Z,7.60
2023-03-04T17:38:43.777Z,7.60
2023-03-04T17:41:18.489Z,7.40
2023-03-04T17:43:51.177Z,7.40
2023-03-04T17:46:24.304Z,7.30
2023-03-04T17:48:56.949Z,7.30
2023-03-04T17:51:33.830Z,7.20
2023-03-04T17:54:05.738Z,7.10
2023-03-04T17:56:39.810Z,7.00
2023-03-04T17:59:13.586Z,7.00
2023-03-04T18:01:45.692Z,6.90
2023-03-04T18:04:17.595Z,6.90
2023-03-04T18:06:48.599Z,6.90
2023-03-04T18:09:19.422Z,6.90
2023-03-04T18:11:50.313Z,6.90
2023-03-04T18:14:21.370Z,6.90
2023-03-04T18:16:53.532Z,6.90
2023-03-04T18:19:24.435Z,6.90
2023-03-04T18:21:55.311Z,6.70
2023-03-04T18:24:26.534Z,6.70
2023-03-04T18:26:58.169Z,6.80
2023-03-04T18:29:29.891Z,6.90
2023-03-04T18:32:00.673Z,6.90
2023-03-04T18:34:31.634Z,6.90
2023-03-04T18:37:04.069Z,6.80
2023-03-04T18:39:34.858Z,6.70
2023-03-04T18:42:06.144Z,6.70
2023-03-04T18:44:37.329Z,6.70
2023-03-04T18:47:08.348Z,6.70
2023-03-04T18:49:40.871Z,6.80
2023-03-04T18:52:13.609Z,6.70
2023-03-04T18:54:44.469Z,6.70
2023-03-04T18:57:17.616Z,6.70
2023-03-04T18:59:51.563Z,6.70
2023-03-04T19:02:42.634Z,6.70
2023-03-04T19:05:16.044Z,6.60
2023-03-04T19:07:47.010Z,6.60
2023-03-04T19:10:18.319Z,6.70
2023-03-04T19:12:49.157Z,6.70
2023-03-04T19:15:20.647Z,6.70
2023-03-04T19:17:51.583Z,6.70
2023-03-04T19:20:22.858Z,6.70
2023-03-04T19:22:54.436Z,6.60
2023-03-04T19:25:25.418Z,6.70
2023-03-04T19:27:56.600Z,6.70
2023-03-04T19:30:27.970Z,6.80
2023-03-04T19:32:59.280Z,6.80
2023-03-04T19:35:32.612Z,6.70
2023-03-04T19:38:03.936Z,6.80
2023-03-04T19:40:34.797Z,6.80
2023-03-04T19:43:05.727Z,6.80
2023-03-04T19:45:36.854Z,6.70
2023-03-04T19:48:08.474Z,6.70
2023-03-04T19:50:39.193Z,6.60
2023-03-04T19:53:11.827Z,6.70
2023-03-04T19:55:42.825Z,6.70
2023-03-04T19:58:13.779Z,6.70
2023-03-04T20:00:44.773Z,6.70
2023-03-04T20:03:16.067Z,6.60
2023-03-04T20:05:48.755Z,6.50
2023-03-04T20:08:19.820Z,6.60
2023-03-04T20:10:50.648Z,6.60
2023-03-04T20:13:21.732Z,6.50
2023-03-04T20:15:54.080Z,6.50
2023-03-04T20:18:25.817Z,6.50
2023-03-04T20:20:59.436Z,6.60
2023-03-04T20:23:30.640Z,6.50
2023-03-04T20:26:02.845Z,6.40
2023-03-04T20:28:34.060Z,6.40
2023-03-04T20:31:18.650Z,6.40
2023-03-04T20:33:51.142Z,6.40
2023-03-04T20:36:23.973Z,6.40
2023-03-04T20:39:02.012Z,6.40
2023-03-04T20:41:28.762Z,6.50
2023-03-04T20:43:59.972Z,6.80
2023-03-04T20:46:38.237Z,7.10
2023-03-04T20:49:28.409Z,7.20
2023-03-04T20:52:02.720Z,7.10
2023-03-04T20:57:12.053Z,7.20
2023-03-04T20:59:42.973Z,7.30
2023-03-04T21:02:18.479Z,7.20
2023-03-04T21:04:49.227Z,7.20
2023-03-04T21:07:20.349Z,7.10
2023-03-04T21:09:51.231Z,7.00
2023-03-04T21:12:22.703Z,6.80
2023-03-04T21:14:53.633Z,6.90
2023-03-04T21:17:25.099Z,6.80
2023-03-04T21:19:55.914Z,6.80
2023-03-04T21:22:27.093Z,6.80
2023-03-04T21:24:57.892Z,6.80
2023-03-04T21:27:28.788Z,6.60
2023-03-04T21:30:02.052Z,6.60
2023-03-04T21:32:33.353Z,6.70
2023-03-04T21:35:04.116Z,6.60
2023-03-04T21:37:35.858Z,6.50
2023-03-04T21:40:08.854Z,6.40
2023-03-04T21:42:39.773Z,6.10
2023-03-04T21:45:13.307Z,5.80
2023-03-04T21:47:44.876Z,5.60
2023-03-04T21:50:15.875Z,5.40
2023-03-04T21:52:46.756Z,5.20
2023-03-04T21:57:55.029Z,5.10
2023-03-04T22:00:26.470Z,4.90
2023-03-04T22:02:57.528Z,4.80
2023-03-04T22:05:28.604Z,4.70
2023-03-04T22:07:59.569Z,4.80
2023-03-04T22:10:31.281Z,4.80
2023-03-04T22:13:02.245Z,4.80
2023-03-04T22:15:34.366Z,4.80
2023-03-04T22:18:05.737Z,4.80
2023-03-04T22:20:37.833Z,4.80
2023-03-04T22:23:09.486Z,4.70
2023-03-04T22:25:42.088Z,4.50
2023-03-04T22:28:13.320Z,4.40
2023-03-04T22:30:44.104Z,4.50
2023-03-04T22:33:15.037Z,4.40
2023-03-04T22:35:46.045Z,4.40
2023-03-04T22:38:17.134Z,4.30
2023-03-04T22:40:49.025Z,4.30
2023-03-04T22:43:20.088Z,4.30
2023-03-04T22:45:51.381Z,4.20
2023-03-04T22:48:22.315Z,4.60
2023-03-04T22:50:53.188Z,4.60
2023-03-04T22:53:25.935Z,4.40
2023-03-04T22:56:00.792Z,4.30
2023-03-04T22:58:31.760Z,4.20
2023-03-04T23:01:03.474Z,4.10
2023-03-04T23:03:34.938Z,4.20
2023-03-04T23:06:09.367Z,4.00
2023-03-04T23:08:41.645Z,4.10
2023-03-04T23:11:13.619Z,4.10
2023-03-04T23:13:44.936Z,4.10
2023-03-04T23:16:18.021Z,4.00
2023-03-04T23:18:50.153Z,3.90
2023-03-04T23:21:22.911Z,3.90
2023-03-04T23:23:54.499Z,4.20
2023-03-04T23:26:28.837Z,4.00
2023-03-04T23:29:01.489Z,3.80
2023-03-04T23:31:33.397Z,3.70
2023-03-04T23:34:05.257Z,3.60
2023-03-04T23:36:38.335Z,3.60
2023-03-04T23:39:10.185Z,3.80
2023-03-04T23:41:41.271Z,3.80
2023-03-04T23:44:14.051Z,3.80
2023-03-04T23:46:45.111Z,3.70
2023-03-04T23:49:18.079Z,3.40
2023-03-04T23:51:49.196Z,3.60
2023-03-04T23:54:20.178Z,3.30
2023-03-04T23:56:51.255Z,3.30
2023-03-04T23:59:22.269Z,3.20
